Jarratt, Virginia
Current Conditions -  °F | °C
As of 9:55 AM on Saturday 20 Dec 2014 (Local Time) from KEMV Reporting Station
Broken Clouds Broken Clouds  
Wind Chill: 30°   Ceiling: 11000
Heat Index: 34°   Visibility: 10mi
Dew Point: 27°   Wind: 5mph
Humidity: 75%   Direction: 350°N
Pressure: 30.34"   Gusts: NA
Location:  36.82°N, 77.47°W
Report Text: KEMV 201455Z AUTO 35004KT 10SM BKN110 01/M03 A3034 RMK AO2
Loading
Personal Weather Stations






























Interactive Weather Map New forecast layout! Learn more

10-Day Weather Forecast

Advertisements
Track Severe Weather on mobile